Time;durP1;ratioP1;P1;durP2;ratioP2;P2;SDS_P1;SDS_P2;PMS_P1;PMS_P2;Temp;Humidity;BMP_temperature;BMP_pressure;BME280_temperature;BME280_humidity;BME280_pressure;Samples;Min_cycle;Max_cycle;Signal;HPM_P1;HPM_P2
2022/07/04 00:01:57;;;;;;;6.37;3.23;;;;;;;;;;5001826;28;20441;-70
2022/07/04 00:04:22;;;;;;;5.57;3.43;;;;;;;;;;5003018;28;20627;-70
2022/07/04 00:06:47;;;;;;;4.83;3.47;;;;;;;;;;5005360;28;20267;-70
2022/07/04 00:09:13;;;;;;;3.33;2.78;;;;;;;;;;5003127;28;20353;-70
2022/07/04 00:11:38;;;;;;;10.47;4.47;;;;;;;;;;5003831;28;20416;-70
2022/07/04 00:14:03;;;;;;;4.13;3.00;;;;;;;;;;5005183;28;20271;-70
2022/07/04 00:16:28;;;;;;;5.17;3.30;;;;;;;;;;5004644;28;20061;-70
2022/07/04 00:18:53;;;;;;;4.32;3.28;;;;;;;;;;5004288;28;20633;-70
2022/07/04 00:21:19;;;;;;;5.70;3.43;;;;;;;;;;5003903;28;20033;-70
2022/07/04 00:23:44;;;;;;;6.70;3.63;;;;;;;;;;5002983;28;20720;-70
2022/07/04 00:26:09;;;;;;;5.90;2.90;;;;;;;;;;5001651;28;20081;-70
2022/07/04 00:28:34;;;;;;;4.53;3.20;;;;;;;;;;4998739;28;20559;-70
2022/07/04 00:30:59;;;;;;;3.90;3.57;;;;;;;;;;5003645;28;20275;-70
2022/07/04 00:33:24;;;;;;;10.73;4.67;;;;;;;;;;5002951;28;20748;-71
2022/07/04 00:35:50;;;;;;;5.07;3.85;;;;;;;;;;5005505;28;20285;-70
2022/07/04 00:38:15;;;;;;;5.43;3.90;;;;;;;;;;5004544;28;20503;-70
2022/07/04 00:40:40;;;;;;;5.97;4.00;;;;;;;;;;5004720;28;20268;-70
2022/07/04 00:43:05;;;;;;;5.97;3.88;;;;;;;;;;5004032;28;20630;-70
2022/07/04 00:45:30;;;;;;;7.30;4.70;;;;;;;;;;5003324;28;20033;-70
2022/07/04 00:47:56;;;;;;;6.65;4.05;;;;;;;;;;5001887;28;20086;-70
2022/07/04 00:50:21;;;;;;;6.77;3.70;;;;;;;;;;5002592;28;20760;-70
2022/07/04 00:52:46;;;;;;;5.15;3.72;;;;;;;;;;5002519;28;20291;-70
2022/07/04 00:55:11;;;;;;;9.80;4.60;;;;;;;;;;5006542;28;20053;-70
2022/07/04 00:57:36;;;;;;;8.45;4.30;;;;;;;;;;5003956;28;20329;-69
2022/07/04 01:00:02;;;;;;;5.28;4.78;;;;;;;;;;4998283;28;20360;-69
2022/07/04 01:02:27;;;;;;;6.65;4.53;;;;;;;;;;5006457;28;20535;-69
2022/07/04 01:04:52;;;;;;;8.77;5.60;;;;;;;;;;5008160;28;20061;-70
2022/07/04 01:07:18;;;;;;;11.20;4.82;;;;;;;;;;5006688;28;20301;-70
2022/07/04 01:09:43;;;;;;;10.77;5.57;;;;;;;;;;5002539;28;20029;-70
2022/07/04 01:12:08;;;;;;;7.82;4.63;;;;;;;;;;5000630;28;20072;-69
2022/07/04 01:14:36;;;;;;;5.50;4.50;;;;;;;;;;5003626;28;20053;-69
2022/07/04 01:17:01;;;;;;;9.90;5.20;;;;;;;;;;5002223;28;20275;-69
2022/07/04 01:19:26;;;;;;;6.53;4.93;;;;;;;;;;4999421;28;20029;-69
2022/07/04 01:21:52;;;;;;;10.07;5.25;;;;;;;;;;5003235;28;20270;-69
2022/07/04 01:24:17;;;;;;;8.25;5.32;;;;;;;;;;5003476;28;20514;-69
2022/07/04 01:26:42;;;;;;;11.95;5.40;;;;;;;;;;5003997;28;20040;-69
2022/07/04 01:29:08;;;;;;;7.75;4.68;;;;;;;;;;5001067;28;20486;-69
2022/07/04 01:31:33;;;;;;;9.70;4.80;;;;;;;;;;5004338;28;20464;-69
2022/07/04 01:33:58;;;;;;;9.65;5.45;;;;;;;;;;5000675;28;20022;-70
2022/07/04 01:36:23;;;;;;;9.88;5.03;;;;;;;;;;5002952;28;20033;-70
2022/07/04 01:38:49;;;;;;;4.90;4.15;;;;;;;;;;5001951;28;20135;-69
2022/07/04 01:41:14;;;;;;;5.10;3.50;;;;;;;;;;5003808;28;20559;-69
2022/07/04 01:43:39;;;;;;;4.00;3.60;;;;;;;;;;5017349;28;20128;-69
2022/07/04 01:46:04;;;;;;;5.00;4.50;;;;;;;;;;5001662;28;20283;-70
2022/07/04 01:48:30;;;;;;;5.28;3.80;;;;;;;;;;5000364;28;20080;-70
2022/07/04 01:50:55;;;;;;;6.50;4.60;;;;;;;;;;5002220;28;20490;-70
2022/07/04 01:53:20;;;;;;;6.27;4.50;;;;;;;;;;5000589;28;20290;-69
2022/07/04 01:55:45;;;;;;;5.70;4.32;;;;;;;;;;5003471;28;20298;-70
2022/07/04 01:58:11;;;;;;;13.45;4.60;;;;;;;;;;5004306;28;20034;-69
2022/07/04 02:03:20;;;;;;;5.95;4.53;;;;;;;;;;5002616;28;20084;-70
2022/07/04 02:05:46;;;;;;;7.78;4.57;;;;;;;;;;5002003;28;20030;-69
2022/07/04 02:08:11;;;;;;;7.90;4.93;;;;;;;;;;4995750;28;20036;-69
2022/07/04 02:10:36;;;;;;;7.30;5.10;;;;;;;;;;5000652;28;20075;-69
2022/07/04 02:13:01;;;;;;;5.55;4.68;;;;;;;;;;5001568;28;20336;-69
2022/07/04 02:15:35;;;;;;;10.82;5.68;;;;;;;;;;5000018;28;20492;-69
2022/07/04 02:18:00;;;;;;;8.45;5.45;;;;;;;;;;4998226;28;20029;-69
2022/07/04 02:20:26;;;;;;;7.80;4.93;;;;;;;;;;4999748;28;20022;-69
2022/07/04 02:22:51;;;;;;;8.57;4.80;;;;;;;;;;5002298;28;20508;-69
2022/07/04 02:25:16;;;;;;;9.17;4.97;;;;;;;;;;5000969;28;20043;-69
2022/07/04 02:27:42;;;;;;;47.50;6.95;;;;;;;;;;5002232;28;20513;-69
2022/07/04 02:30:07;;;;;;;9.13;4.03;;;;;;;;;;5000348;28;20017;-69
2022/07/04 02:32:33;;;;;;;12.90;5.00;;;;;;;;;;5002199;28;20917;-69
2022/07/04 02:34:58;;;;;;;6.37;5.07;;;;;;;;;;5001104;28;20030;-69
2022/07/04 02:37:23;;;;;;;8.18;5.22;;;;;;;;;;5000534;28;20275;-69
2022/07/04 02:39:48;;;;;;;8.00;4.68;;;;;;;;;;5001130;28;20041;-69
2022/07/04 02:42:13;;;;;;;7.82;5.22;;;;;;;;;;5000882;28;20022;-69
2022/07/04 02:44:39;;;;;;;8.30;5.03;;;;;;;;;;5002325;28;20140;-69
2022/07/04 02:47:04;;;;;;;7.65;5.18;;;;;;;;;;4998959;28;20029;-69
2022/07/04 02:49:29;;;;;;;8.60;5.50;;;;;;;;;;5008964;28;20034;-69
2022/07/04 02:51:54;;;;;;;10.57;5.35;;;;;;;;;;5001253;28;20166;-69
2022/07/04 02:54:19;;;;;;;9.05;6.22;;;;;;;;;;5000536;28;20025;-69
2022/07/04 02:56:45;;;;;;;9.02;6.53;;;;;;;;;;5005681;28;20345;-69
2022/07/04 02:59:10;;;;;;;6.67;5.33;;;;;;;;;;5011027;28;20125;-69
2022/07/04 03:01:35;;;;;;;10.55;6.00;;;;;;;;;;5016226;28;20500;-69
2022/07/04 03:04:02;;;;;;;8.25;5.18;;;;;;;;;;5002437;28;20040;-69
2022/07/04 03:06:27;;;;;;;10.23;5.50;;;;;;;;;;5000100;28;20314;-69
2022/07/04 03:08:52;;;;;;;8.98;6.15;;;;;;;;;;5002140;28;20034;-69
2022/07/04 03:11:18;;;;;;;14.17;5.63;;;;;;;;;;5004562;28;20033;-69
2022/07/04 03:13:43;;;;;;;12.95;5.93;;;;;;;;;;5018956;28;20302;-69
2022/07/04 03:16:08;;;;;;;9.90;6.67;;;;;;;;;;5005564;28;20494;-69
2022/07/04 03:18:34;;;;;;;12.45;5.82;;;;;;;;;;5002589;28;20295;-69
2022/07/04 03:21:00;;;;;;;6.23;5.20;;;;;;;;;;4998668;28;20025;-69
2022/07/04 03:23:25;;;;;;;9.23;5.32;;;;;;;;;;5001928;28;20574;-69
2022/07/04 03:25:50;;;;;;;12.18;6.85;;;;;;;;;;4999782;28;20467;-69
2022/07/04 03:28:15;;;;;;;9.25;5.60;;;;;;;;;;5000897;28;20444;-69
2022/07/04 03:30:41;;;;;;;8.65;5.13;;;;;;;;;;5005595;28;20030;-69
2022/07/04 03:33:06;;;;;;;12.88;6.28;;;;;;;;;;5000864;28;20025;-69
2022/07/04 03:35:31;;;;;;;11.80;6.50;;;;;;;;;;5003811;28;20029;-69
2022/07/04 03:37:56;;;;;;;12.87;6.90;;;;;;;;;;5006868;28;20052;-69
2022/07/04 03:40:21;;;;;;;11.35;6.47;;;;;;;;;;5003447;28;20278;-69
2022/07/04 03:42:47;;;;;;;13.77;6.78;;;;;;;;;;5007384;28;20110;-69
2022/07/04 03:45:12;;;;;;;8.95;5.88;;;;;;;;;;5003901;28;20021;-69
2022/07/04 03:47:37;;;;;;;14.07;6.40;;;;;;;;;;5006447;28;20075;-69
2022/07/04 03:50:03;;;;;;;16.58;6.72;;;;;;;;;;5004726;28;20279;-70
2022/07/04 03:52:28;;;;;;;13.70;7.65;;;;;;;;;;5003736;28;20021;-70
2022/07/04 03:54:53;;;;;;;10.43;7.40;;;;;;;;;;5008085;28;20084;-70
2022/07/04 03:57:18;;;;;;;11.02;7.00;;;;;;;;;;5010292;28;20114;-70
2022/07/04 03:59:44;;;;;;;8.40;5.72;;;;;;;;;;5008156;28;20041;-70
2022/07/04 04:02:09;;;;;;;7.40;6.15;;;;;;;;;;5002344;28;20113;-70
2022/07/04 04:07:18;;;;;;;10.57;5.63;;;;;;;;;;5003381;28;20045;-70
2022/07/04 04:09:43;;;;;;;8.07;6.07;;;;;;;;;;5004134;28;20271;-70
2022/07/04 04:12:08;;;;;;;11.82;6.60;;;;;;;;;;5005091;28;20057;-70
2022/07/04 04:14:33;;;;;;;11.65;7.03;;;;;;;;;;5003048;28;20994;-70
2022/07/04 04:16:59;;;;;;;10.17;6.90;;;;;;;;;;5003965;28;20030;-69
2022/07/04 04:19:24;;;;;;;10.02;7.68;;;;;;;;;;5004888;28;20286;-70
2022/07/04 04:21:49;;;;;;;10.83;7.30;;;;;;;;;;5004333;28;20029;-70
2022/07/04 04:24:14;;;;;;;10.13;7.00;;;;;;;;;;5004568;28;20807;-70
2022/07/04 04:26:39;;;;;;;12.67;7.77;;;;;;;;;;5004130;28;20292;-70
2022/07/04 04:29:04;;;;;;;14.13;8.63;;;;;;;;;;5008802;28;20278;-70
2022/07/04 04:31:30;;;;;;;16.83;8.90;;;;;;;;;;5010110;28;20698;-70
2022/07/04 04:33:56;;;;;;;13.68;8.40;;;;;;;;;;5008751;28;20353;-70
2022/07/04 04:36:21;;;;;;;22.77;9.50;;;;;;;;;;5007730;28;20038;-70
2022/07/04 04:38:46;;;;;;;12.73;9.10;;;;;;;;;;5016582;28;20056;-69
2022/07/04 04:41:11;;;;;;;16.27;9.60;;;;;;;;;;5012355;28;20279;-71
2022/07/04 04:43:37;;;;;;;17.67;10.30;;;;;;;;;;5016737;28;20259;-70
2022/07/04 04:46:02;;;;;;;15.32;10.63;;;;;;;;;;5011152;28;20426;-68
2022/07/04 04:48:27;;;;;;;19.02;10.13;;;;;;;;;;5004893;28;20022;-69
2022/07/04 04:50:52;;;;;;;15.57;9.87;;;;;;;;;;5009513;28;20072;-69
2022/07/04 04:53:17;;;;;;;20.40;10.73;;;;;;;;;;5023182;28;20616;-69
2022/07/04 04:55:42;;;;;;;17.75;9.82;;;;;;;;;;5010664;28;20021;-69
2022/07/04 04:58:07;;;;;;;15.60;10.15;;;;;;;;;;5010037;28;20038;-70
2022/07/04 05:00:33;;;;;;;14.93;9.85;;;;;;;;;;5003508;28;20057;-70
2022/07/04 05:02:58;;;;;;;18.38;9.45;;;;;;;;;;5017978;28;20067;-70
2022/07/04 05:05:23;;;;;;;19.60;9.65;;;;;;;;;;5014614;28;20113;-70
2022/07/04 05:07:48;;;;;;;12.60;8.57;;;;;;;;;;5007669;28;20072;-70
2022/07/04 05:10:15;;;;;;;13.93;8.63;;;;;;;;;;5007519;28;21609;-70
2022/07/04 05:12:40;;;;;;;11.13;7.90;;;;;;;;;;5010187;28;20468;-70
2022/07/04 05:15:06;;;;;;;14.07;8.40;;;;;;;;;;5012725;28;20037;-71
2022/07/04 05:17:31;;;;;;;17.05;9.00;;;;;;;;;;5013312;28;20287;-69
2022/07/04 05:19:56;;;;;;;17.33;8.90;;;;;;;;;;5009888;28;20038;-69
2022/07/04 05:22:21;;;;;;;17.30;8.43;;;;;;;;;;5020146;28;20046;-69
2022/07/04 05:24:46;;;;;;;11.90;8.00;;;;;;;;;;5012910;28;20105;-71
2022/07/04 05:27:12;;;;;;;13.70;8.82;;;;;;;;;;5017208;28;20033;-70
2022/07/04 05:29:37;;;;;;;13.50;7.47;;;;;;;;;;5010957;28;20104;-71
2022/07/04 05:32:03;;;;;;;11.27;8.55;;;;;;;;;;5017550;28;20078;-70
2022/07/04 05:34:28;;;;;;;11.68;8.05;;;;;;;;;;5009475;28;20480;-70
2022/07/04 05:36:54;;;;;;;15.00;8.77;;;;;;;;;;5005279;28;20145;-71
2022/07/04 05:39:19;;;;;;;11.80;7.35;;;;;;;;;;5018547;28;20030;-69
2022/07/04 05:41:45;;;;;;;16.80;8.73;;;;;;;;;;5010642;28;20084;-70
2022/07/04 05:44:10;;;;;;;13.43;7.85;;;;;;;;;;5004896;28;20085;-69
2022/07/04 05:46:35;;;;;;;12.70;8.60;;;;;;;;;;5005938;28;20057;-70
2022/07/04 05:49:00;;;;;;;13.53;9.20;;;;;;;;;;5004818;28;20271;-69
2022/07/04 05:51:25;;;;;;;15.85;9.73;;;;;;;;;;5009093;28;20654;-69
2022/07/04 05:53:50;;;;;;;14.05;8.80;;;;;;;;;;5009721;28;20072;-70
2022/07/04 05:56:16;;;;;;;13.10;7.13;;;;;;;;;;5009561;28;20060;-68
2022/07/04 05:58:41;;;;;;;14.77;8.57;;;;;;;;;;5003459;28;20295;-69
2022/07/04 06:01:06;;;;;;;9.05;6.93;;;;;;;;;;5026389;28;20097;-70
2022/07/04 06:03:32;;;;;;;13.70;8.70;;;;;;;;;;5015800;28;20416;-71
2022/07/04 06:05:57;;;;;;;12.23;8.52;;;;;;;;;;5006358;28;20413;-71
2022/07/04 06:08:23;;;;;;;15.63;7.93;;;;;;;;;;5000553;28;20396;-69
2022/07/04 06:10:48;;;;;;;13.38;7.65;;;;;;;;;;5008855;28;20061;-70
2022/07/04 06:13:13;;;;;;;11.60;6.60;;;;;;;;;;5020237;28;20335;-70
2022/07/04 06:15:39;;;;;;;11.40;6.80;;;;;;;;;;5011465;28;20033;-69
2022/07/04 06:18:04;;;;;;;11.80;6.55;;;;;;;;;;4999483;28;20419;-71
2022/07/04 06:20:29;;;;;;;11.90;5.60;;;;;;;;;;5008067;28;20029;-70
2022/07/04 06:22:55;;;;;;;12.60;7.05;;;;;;;;;;5009040;28;20075;-70
2022/07/04 06:25:20;;;;;;;9.50;5.53;;;;;;;;;;5008095;28;20030;-70
2022/07/04 06:27:46;;;;;;;15.57;7.40;;;;;;;;;;5009810;28;20097;-68
2022/07/04 06:30:14;;;;;;;13.35;7.70;;;;;;;;;;5004560;28;20022;-70
2022/07/04 06:32:46;;;;;;;9.98;6.65;;;;;;;;;;5006096;28;20021;-71
2022/07/04 06:37:56;;;;;;;12.48;6.22;;;;;;;;;;5002355;28;20084;-70
2022/07/04 06:40:21;;;;;;;12.20;6.63;;;;;;;;;;5003029;28;20495;-69
2022/07/04 06:42:46;;;;;;;12.02;5.25;;;;;;;;;;5009489;28;20064;-70
2022/07/04 06:45:12;;;;;;;8.97;5.97;;;;;;;;;;5010100;28;20064;-71
2022/07/04 06:47:37;;;;;;;10.30;6.20;;;;;;;;;;5006731;28;20022;-72
2022/07/04 06:50:02;;;;;;;8.83;5.60;;;;;;;;;;5003751;28;20279;-72
2022/07/04 06:52:27;;;;;;;11.00;6.15;;;;;;;;;;5001343;28;20045;-69
2022/07/04 06:54:52;;;;;;;10.30;4.90;;;;;;;;;;5008970;28;20038;-70
2022/07/04 06:57:18;;;;;;;12.13;5.03;;;;;;;;;;5014564;28;20061;-70
2022/07/04 06:59:43;;;;;;;12.55;5.65;;;;;;;;;;4999028;28;20025;-72
2022/07/04 07:02:08;;;;;;;9.20;5.83;;;;;;;;;;5008901;28;20029;-73
2022/07/04 07:04:33;;;;;;;12.47;6.77;;;;;;;;;;5003781;28;20268;-71
2022/07/04 07:06:59;;;;;;;10.48;5.93;;;;;;;;;;4999955;28;20060;-71
2022/07/04 07:09:24;;;;;;;7.38;6.18;;;;;;;;;;5004766;28;20136;-71
2022/07/04 07:11:49;;;;;;;10.43;4.90;;;;;;;;;;5007595;28;20535;-71
2022/07/04 07:14:15;;;;;;;8.35;5.10;;;;;;;;;;5005022;28;20030;-71
2022/07/04 07:16:40;;;;;;;8.85;5.22;;;;;;;;;;5008188;28;20068;-71
2022/07/04 07:19:05;;;;;;;16.55;5.55;;;;;;;;;;5008578;28;20029;-71
2022/07/04 07:21:30;;;;;;;17.43;6.23;;;;;;;;;;5000531;28;20033;-72
2022/07/04 07:23:55;;;;;;;9.70;5.90;;;;;;;;;;5005065;28;20022;-71
2022/07/04 07:26:21;;;;;;;15.43;6.22;;;;;;;;;;5002013;28;20059;-69
2022/07/04 07:28:46;;;;;;;8.30;5.35;;;;;;;;;;5011707;28;20033;-71
2022/07/04 07:31:11;;;;;;;13.02;5.03;;;;;;;;;;5006091;28;20029;-73
2022/07/04 07:33:37;;;;;;;11.15;5.05;;;;;;;;;;5002146;28;20022;-75
2022/07/04 07:36:02;;;;;;;7.13;4.45;;;;;;;;;;4998372;28;20072;-74
2022/07/04 07:38:27;;;;;;;5.82;4.20;;;;;;;;;;5002114;28;20574;-70
2022/07/04 07:40:52;;;;;;;6.97;3.53;;;;;;;;;;5011692;28;20033;-68
2022/07/04 07:43:18;;;;;;;8.43;5.17;;;;;;;;;;5003001;28;20519;-68
2022/07/04 07:45:43;;;;;;;6.40;4.07;;;;;;;;;;5003554;28;20622;-72
2022/07/04 07:48:08;;;;;;;10.77;4.00;;;;;;;;;;5003771;28;20022;-73
2022/07/04 07:50:33;;;;;;;9.00;4.20;;;;;;;;;;5004864;28;20029;-75
2022/07/04 07:52:58;;;;;;;7.70;3.50;;;;;;;;;;5006289;28;20362;-75
2022/07/04 07:55:23;;;;;;;9.50;4.30;;;;;;;;;;5004695;28;20026;-70
2022/07/04 07:57:49;;;;;;;7.53;3.97;;;;;;;;;;5007166;28;20032;-70
2022/07/04 08:00:15;;;;;;;7.70;3.53;;;;;;;;;;5001617;28;20287;-75
2022/07/04 08:05:23;;;;;;;15.73;4.72;;;;;;;;;;4999267;28;20575;-72
2022/07/04 08:07:49;;;;;;;15.13;5.63;;;;;;;;;;5003973;28;20034;-76
2022/07/04 08:10:14;;;;;;;8.67;4.43;;;;;;;;;;5001865;28;20446;-73
2022/07/04 08:12:39;;;;;;;9.87;4.80;;;;;;;;;;5004925;28;20026;-75
2022/07/04 08:15:05;;;;;;;10.18;4.22;;;;;;;;;;4999677;28;20384;-72
2022/07/04 08:17:30;;;;;;;6.53;4.38;;;;;;;;;;5014611;28;20472;-71
2022/07/04 08:19:55;;;;;;;11.82;3.95;;;;;;;;;;5001924;28;20460;-72
2022/07/04 08:22:20;;;;;;;4.78;3.40;;;;;;;;;;5003654;28;20151;-73
2022/07/04 08:24:46;;;;;;;10.37;4.13;;;;;;;;;;5000423;28;20022;-71
2022/07/04 08:27:12;;;;;;;6.00;3.58;;;;;;;;;;5006490;28;20271;-73
2022/07/04 08:29:37;;;;;;;7.18;3.58;;;;;;;;;;5002711;28;20211;-72
2022/07/04 08:32:02;;;;;;;8.20;3.30;;;;;;;;;;5004425;28;20052;-71
2022/07/04 08:34:27;;;;;;;5.93;2.83;;;;;;;;;;5000548;28;20433;-71
2022/07/04 08:36:53;;;;;;;6.83;2.63;;;;;;;;;;4999965;28;20018;-73
2022/07/04 08:39:18;;;;;;;6.37;3.20;;;;;;;;;;5005370;28;22307;-73
2022/07/04 08:41:43;;;;;;;10.40;4.33;;;;;;;;;;5005254;28;20310;-71
2022/07/04 08:44:12;;;;;;;4.97;3.40;;;;;;;;;;5009538;28;20361;-72
2022/07/04 08:46:41;;;;;;;7.47;2.28;;;;;;;;;;5005982;28;20100;-75
2022/07/04 08:49:10;;;;;;;7.05;2.03;;;;;;;;;;5009411;28;20037;-76
2022/07/04 08:51:57;;;;;;;4.88;1.70;;;;;;;;;;5005478;28;20087;-73
2022/07/04 08:59:54;;;;;;;3.67;1.80;;;;;;;;;;5014906;28;20116;-71
2022/07/04 09:02:19;;;;;;;4.97;2.20;;;;;;;;;;5004010;28;20026;-72
2022/07/04 09:04:45;;;;;;;10.00;2.00;;;;;;;;;;5009891;28;20032;-72
2022/07/04 09:07:12;;;;;;;7.20;2.00;;;;;;;;;;5004137;28;20126;-70
2022/07/04 09:09:37;;;;;;;3.67;2.63;;;;;;;;;;5006646;28;20033;-74
2022/07/04 09:12:02;;;;;;;6.85;2.50;;;;;;;;;;5004294;28;20026;-73
2022/07/04 09:14:27;;;;;;;3.67;1.92;;;;;;;;;;5007489;28;20122;-75
2022/07/04 09:16:54;;;;;;;6.27;2.00;;;;;;;;;;5018546;28;20057;-76
2022/07/04 09:19:20;;;;;;;8.88;1.80;;;;;;;;;;5020054;28;20026;-71
2022/07/04 09:21:46;;;;;;;5.43;1.83;;;;;;;;;;5019935;28;20029;-74
2022/07/04 09:24:11;;;;;;;5.53;2.22;;;;;;;;;;5014513;28;20413;-74
2022/07/04 09:26:40;;;;;;;5.90;2.10;;;;;;;;;;5010943;28;20477;-77
2022/07/04 09:29:05;;;;;;;3.50;1.95;;;;;;;;;;5001560;28;20064;-74
2022/07/04 09:31:31;;;;;;;7.30;2.47;;;;;;;;;;5005474;28;20445;-73
2022/07/04 09:34:06;;;;;;;8.40;2.05;;;;;;;;;;5001463;28;20229;-72
2022/07/04 09:36:40;;;;;;;3.88;1.88;;;;;;;;;;5004797;28;20076;-75
2022/07/04 09:39:14;;;;;;;5.05;2.17;;;;;;;;;;5004813;28;20062;-77
2022/07/04 09:41:58;;;;;;;7.13;2.33;;;;;;;;;;5003465;28;20018;-73
2022/07/04 09:44:28;;;;;;;6.45;2.40;;;;;;;;;;5007229;28;20420;-76
2022/07/04 09:46:54;;;;;;;7.65;2.53;;;;;;;;;;5011132;28;20026;-75
2022/07/04 09:49:19;;;;;;;9.55;3.35;;;;;;;;;;5007313;28;20080;-74
2022/07/04 09:51:46;;;;;;;8.82;2.67;;;;;;;;;;5002852;28;20029;-76
2022/07/04 09:54:18;;;;;;;8.38;2.50;;;;;;;;;;5006265;28;20026;-75
2022/07/04 09:56:45;;;;;;;9.40;3.28;;;;;;;;;;5007900;28;20039;-75
2022/07/04 09:59:10;;;;;;;7.88;2.83;;;;;;;;;;4998930;28;20148;-71
2022/07/04 10:01:36;;;;;;;8.27;3.30;;;;;;;;;;5007640;28;20021;-74
2022/07/04 10:04:03;;;;;;;6.13;3.47;;;;;;;;;;5017762;28;20029;-70
2022/07/04 10:06:31;;;;;;;8.57;3.72;;;;;;;;;;5002710;28;20537;-72
2022/07/04 10:09:05;;;;;;;7.05;4.13;;;;;;;;;;5006693;28;20026;-74
2022/07/04 10:11:34;;;;;;;8.60;4.07;;;;;;;;;;5011379;28;20026;-74
2022/07/04 10:13:59;;;;;;;4.65;3.63;;;;;;;;;;5000921;28;20610;-72
2022/07/04 10:16:25;;;;;;;13.55;3.83;;;;;;;;;;5002366;28;20033;-73
2022/07/04 10:18:50;;;;;;;6.15;3.10;;;;;;;;;;5014694;28;20026;-72
2022/07/04 10:21:15;;;;;;;7.50;3.17;;;;;;;;;;5010423;28;20479;-72
2022/07/04 10:23:41;;;;;;;9.55;3.17;;;;;;;;;;5002906;28;20018;-75
2022/07/04 10:26:06;;;;;;;8.10;3.47;;;;;;;;;;5002493;28;20344;-74
2022/07/04 10:28:32;;;;;;;6.13;3.30;;;;;;;;;;5000430;28;20037;-71
2022/07/04 10:30:58;;;;;;;7.03;3.20;;;;;;;;;;5003486;28;20274;-72
2022/07/04 10:33:25;;;;;;;7.55;3.30;;;;;;;;;;5002688;28;20030;-74
2022/07/04 10:35:56;;;;;;;9.77;3.80;;;;;;;;;;5004319;28;20358;-73
2022/07/04 10:38:21;;;;;;;10.68;3.42;;;;;;;;;;4997376;28;20166;-74
2022/07/04 10:40:46;;;;;;;4.87;3.47;;;;;;;;;;4997611;28;20023;-74
2022/07/04 10:43:51;;;;;;;11.67;3.50;;;;;;;;;;5004815;28;20013;-74
2022/07/04 10:46:15;;;;;;;7.77;3.40;;;;;;;;;;5012115;28;20052;-76
2022/07/04 10:48:59;;;;;;;4.72;3.42;;;;;;;;;;4998427;28;20287;-75
2022/07/04 10:51:24;;;;;;;;;;;;;;;;;;5008666;28;20079;-75
2022/07/04 10:54:07;;;;;;;7.18;3.38;;;;;;;;;;5009123;28;19913;-75
2022/07/04 10:56:36;;;;;;;8.15;3.38;;;;;;;;;;5014821;28;20543;-74
2022/07/04 10:59:07;;;;;;;6.82;3.50;;;;;;;;;;4998831;28;20113;-74
2022/07/04 11:01:32;;;;;;;7.32;3.45;;;;;;;;;;5002406;28;20026;-75
2022/07/04 11:03:57;;;;;;;8.43;3.33;;;;;;;;;;5000660;28;20025;-76
2022/07/04 11:06:44;;;;;;;8.80;3.50;;;;;;;;;;5009912;28;20661;-73
2022/07/04 11:09:22;;;;;;;7.80;3.08;;;;;;;;;;4995243;28;20749;-72
2022/07/04 11:11:48;;;;;;;6.50;3.63;;;;;;;;;;5000819;28;20100;-74
2022/07/04 11:14:34;;;;;;;6.20;3.47;;;;;;;;;;5009573;28;20449;-71
2022/07/04 11:16:59;;;;;;;7.72;3.28;;;;;;;;;;4993266;28;20079;-74
2022/07/04 11:19:24;;;;;;;4.32;3.58;;;;;;;;;;5001151;28;20423;-75
2022/07/04 11:21:50;;;;;;;8.48;4.15;;;;;;;;;;4998329;28;20031;-77
2022/07/04 11:24:15;;;;;;;11.18;4.38;;;;;;;;;;5013412;28;20064;-74
2022/07/04 11:26:40;;;;;;;11.23;4.17;;;;;;;;;;5010513;28;20017;-74
2022/07/04 11:29:05;;;;;;;8.67;3.43;;;;;;;;;;5001963;28;20042;-69
2022/07/04 11:31:37;;;;;;;9.38;3.92;;;;;;;;;;5007106;28;20064;-72
2022/07/04 11:34:03;;;;;;;11.82;4.13;;;;;;;;;;5007433;28;20076;-72
2022/07/04 11:36:28;;;;;;;10.77;4.73;;;;;;;;;;5007998;28;20440;-74
2022/07/04 11:39:00;;;;;;;9.90;5.20;;;;;;;;;;5007863;28;20278;-77
2022/07/04 11:47:02;;;;;;;12.07;5.90;;;;;;;;;;5005907;28;20041;-74
2022/07/04 11:49:27;;;;;;;12.18;5.82;;;;;;;;;;4997708;28;20361;-74
2022/07/04 11:51:55;;;;;;;9.03;5.40;;;;;;;;;;5004278;28;20089;-74
2022/07/04 11:54:20;;;;;;;8.48;4.85;;;;;;;;;;5006039;28;20405;-70
2022/07/04 11:56:46;;;;;;;12.15;3.85;;;;;;;;;;5014918;28;20025;-74
2022/07/04 11:59:15;;;;;;;7.32;4.15;;;;;;;;;;5009290;28;20018;-73
2022/07/04 12:01:41;;;;;;;6.00;3.58;;;;;;;;;;5016751;28;20534;-76
2022/07/04 12:04:14;;;;;;;12.15;4.40;;;;;;;;;;5015401;28;20026;-73
2022/07/04 12:06:40;;;;;;;6.85;4.05;;;;;;;;;;5013462;28;20026;-72
2022/07/04 12:09:05;;;;;;;10.07;4.28;;;;;;;;;;5018306;28;20041;-71
2022/07/04 12:12:09;;;;;;;7.65;4.80;;;;;;;;;;5008806;28;20469;-70
2022/07/04 12:14:34;;;;;;;8.07;4.40;;;;;;;;;;4968360;28;20045;-73
2022/07/04 12:17:09;;;;;;;9.47;4.70;;;;;;;;;;4967408;28;20043;-71
2022/07/04 12:19:35;;;;;;;9.55;4.53;;;;;;;;;;4989953;28;20121;-73
2022/07/04 12:22:00;;;;;;;14.65;4.85;;;;;;;;;;5000024;28;20124;-71
2022/07/04 12:24:38;;;;;;;9.37;4.77;;;;;;;;;;5002216;28;20026;-72
2022/07/04 12:27:03;;;;;;;11.60;4.45;;;;;;;;;;5007106;28;20728;-72
2022/07/04 12:29:28;;;;;;;8.40;3.47;;;;;;;;;;5011123;28;20029;-71
2022/07/04 12:31:54;;;;;;;10.87;3.80;;;;;;;;;;5005522;28;20033;-70
2022/07/04 12:34:19;;;;;;;5.90;3.93;;;;;;;;;;5003528;28;20025;-71
2022/07/04 12:36:52;;;;;;;9.32;3.33;;;;;;;;;;5018625;28;20518;-70
2022/07/04 12:39:30;;;;;;;6.37;3.53;;;;;;;;;;5016391;28;20017;-69
2022/07/04 12:42:09;;;;;;;6.22;3.30;;;;;;;;;;5008881;28;20484;-70
2022/07/04 12:44:34;;;;;;;8.23;3.42;;;;;;;;;;5003817;28;20028;-70
2022/07/04 12:47:00;;;;;;;7.03;3.33;;;;;;;;;;5001247;28;20022;-71
2022/07/04 12:49:26;;;;;;;7.03;3.03;;;;;;;;;;5011165;28;20045;-70
2022/07/04 12:51:51;;;;;;;6.95;3.40;;;;;;;;;;5001629;28;20029;-69
2022/07/04 12:54:17;;;;;;;7.35;3.97;;;;;;;;;;5002850;28;20288;-71
2022/07/04 12:56:43;;;;;;;8.27;3.70;;;;;;;;;;5002952;28;20041;-71
2022/07/04 12:59:12;;;;;;;5.20;3.53;;;;;;;;;;5006011;28;20479;-71
2022/07/04 13:01:38;;;;;;;6.63;3.40;;;;;;;;;;5006148;28;20053;-71
2022/07/04 13:04:03;;;;;;;6.18;3.20;;;;;;;;;;5005275;28;20701;-70
2022/07/04 13:06:29;;;;;;;4.00;2.60;;;;;;;;;;5003648;28;20136;-70
2022/07/04 13:08:55;;;;;;;4.53;2.80;;;;;;;;;;5001145;28;20425;-70
2022/07/04 13:14:04;;;;;;;5.53;2.80;;;;;;;;;;5003909;28;20459;-71
2022/07/04 13:16:29;;;;;;;5.50;2.50;;;;;;;;;;5007806;28;20528;-73
2022/07/04 13:18:54;;;;;;;3.60;2.40;;;;;;;;;;5003309;28;20035;-70
2022/07/04 13:21:20;;;;;;;6.88;3.22;;;;;;;;;;5000679;28;20068;-72
2022/07/04 13:23:45;;;;;;;7.27;2.93;;;;;;;;;;5004647;28;20054;-75
2022/07/04 13:26:10;;;;;;;9.87;3.07;;;;;;;;;;5005520;28;20030;-75
2022/07/04 13:28:35;;;;;;;5.47;2.78;;;;;;;;;;5008177;28;20025;-71
2022/07/04 13:31:00;;;;;;;7.50;2.93;;;;;;;;;;5010544;28;20041;-71
2022/07/04 13:33:26;;;;;;;3.95;2.90;;;;;;;;;;5002091;28;20017;-69
2022/07/04 13:35:52;;;;;;;4.13;2.40;;;;;;;;;;5005361;28;20018;-73
2022/07/04 13:38:18;;;;;;;4.43;2.27;;;;;;;;;;5002704;28;20021;-70
2022/07/04 13:40:44;;;;;;;6.70;2.72;;;;;;;;;;5000332;28;20038;-71
2022/07/04 13:43:10;;;;;;;4.20;2.88;;;;;;;;;;5007210;28;20013;-72
2022/07/04 13:45:36;;;;;;;7.60;2.75;;;;;;;;;;5000017;28;20388;-72
2022/07/04 13:48:01;;;;;;;5.07;2.63;;;;;;;;;;5003515;28;20116;-70
2022/07/04 13:50:26;;;;;;;4.87;2.50;;;;;;;;;;5004766;28;20025;-71
2022/07/04 13:52:51;;;;;;;4.10;2.70;;;;;;;;;;5005970;28;20156;-70
2022/07/04 13:55:17;;;;;;;5.68;2.38;;;;;;;;;;5006754;28;20043;-72
2022/07/04 13:57:42;;;;;;;5.43;2.60;;;;;;;;;;4999869;28;20393;-70
2022/07/04 14:00:07;;;;;;;5.90;2.80;;;;;;;;;;5000326;28;20623;-68
2022/07/04 14:02:33;;;;;;;7.80;3.03;;;;;;;;;;4999348;28;20275;-68
2022/07/04 14:04:58;;;;;;;5.75;2.80;;;;;;;;;;5006304;28;20092;-69
2022/07/04 14:07:24;;;;;;;8.88;2.72;;;;;;;;;;5003469;28;20026;-72
2022/07/04 14:09:49;;;;;;;8.70;2.78;;;;;;;;;;5004524;28;20018;-71
2022/07/04 14:12:14;;;;;;;7.22;2.67;;;;;;;;;;5001288;28;20022;-71
2022/07/04 14:14:40;;;;;;;6.80;3.30;;;;;;;;;;5006048;28;20025;-69
2022/07/04 14:17:06;;;;;;;5.63;2.83;;;;;;;;;;5001098;28;20041;-70
2022/07/04 14:19:31;;;;;;;4.43;2.45;;;;;;;;;;5001323;28;20026;-69
2022/07/04 14:21:56;;;;;;;3.87;2.80;;;;;;;;;;5001271;28;20061;-69
2022/07/04 14:24:21;;;;;;;4.87;3.17;;;;;;;;;;5005212;28;20084;-70
2022/07/04 14:26:46;;;;;;;8.15;3.20;;;;;;;;;;5005019;28;20052;-71
2022/07/04 14:29:12;;;;;;;6.47;2.70;;;;;;;;;;5005370;28;20052;-73
2022/07/04 14:31:37;;;;;;;4.23;2.77;;;;;;;;;;4997332;28;20121;-72
2022/07/04 14:34:03;;;;;;;5.28;2.92;;;;;;;;;;5002771;28;20061;-71
2022/07/04 14:36:28;;;;;;;5.60;2.50;;;;;;;;;;5010732;28;20124;-71
2022/07/04 14:38:53;;;;;;;12.63;2.95;;;;;;;;;;5006175;28;20092;-71
2022/07/04 14:41:18;;;;;;;6.63;3.07;;;;;;;;;;5007094;28;20110;-71
2022/07/04 14:43:43;;;;;;;5.40;2.70;;;;;;;;;;5012385;28;20018;-69
2022/07/04 14:46:09;;;;;;;7.00;2.93;;;;;;;;;;4998458;28;20037;-72
2022/07/04 15:52:19;;;;;;;3.83;2.80;;;;;;;;;;5772978;23;20436;-69
2022/07/04 15:54:45;;;;;;;5.53;3.05;;;;;;;;;;4984363;28;20018;-70
2022/07/04 15:57:10;;;;;;;6.87;3.07;;;;;;;;;;4988768;28;20010;-70
2022/07/04 15:59:35;;;;;;;6.50;3.03;;;;;;;;;;4990901;28;20033;-70
2022/07/04 16:02:00;;;;;;;7.68;3.17;;;;;;;;;;4990900;28;20350;-69